Terminal Aerodrome Forecast
Issued by NWS Cleveland, OH

Home | Current Version | Previous Version | Text Only | Print | Product List | Glossary On
Versions: 1 2 3 4 5 6 7 8 9 10 11 12 13 14 15 16 17 18 19 20 21 22
896
FTUS41 KCLE 282326
TAFERI
TAF
KERI 282326Z 2900/2924 05010KT P6SM OVC025
     FM290100 05008KT P6SM OVC015
     FM292000 03009KT 4SM -RA BR OVC007
     FM292200 02008KT P6SM OVC015=

USA.gov is the U.S. government's official web portal to all federal, state and local government web resources and services.